Akharnai, Greece
Current Conditions -  °F | °C
As of 2:20 PM on Friday 24 Oct 2014 (Local Time) from LGEL Reporting Station
Heavy Rain Heavy Rain  
Wind Chill: 64°   Ceiling: 2500
Heat Index: 64°   Visibility: 3mi
Dew Point: 57°   Wind: 24mph
Humidity: 77%   Direction: 160°SSE
Pressure: 29.65"   Gusts: 36mph
Location:  38.08°N, 23.73°E
Report Text: LGEL 241120Z 16021G31KT 5000 +RA FEW010 SCT018TCU BKN025 18/14 Q1004
Loading
Personal Weather Stations






























Interactive Weather Map
Tropical Storm Tracking
New forecast layout! Learn more

10-Day Weather Forecast

Advertisements
Track Severe Weather on mobile